Time;durP1;ratioP1;P1;durP2;ratioP2;P2;SDS_P1;SDS_P2;PMS_P1;PMS_P2;Temp;Humidity;BMP_temperature;BMP_pressure;BME280_temperature;BME280_humidity;BME280_pressure;Samples;Min_cycle;Max_cycle;Signal;HPM_P1;HPM_P2
2022/12/06 00:00:45;;;;;;;0.10;0.10;;;6.10;99.90;;;;;;5066542;28;20203;-80
2022/12/06 00:03:10;;;;;;;0.10;0.10;;;6.10;99.90;;;;;;5067177;28;20642;-80
2022/12/06 00:05:36;;;;;;;0.10;0.10;;;6.10;99.90;;;;;;5067829;28;20279;-80
2022/12/06 00:08:01;;;;;;;0.10;0.10;;;6.10;99.90;;;;;;5068097;28;20687;-80
2022/12/06 00:10:27;;;;;;;0.10;0.10;;;6.10;99.90;;;;;;5067902;28;20193;-80
2022/12/06 00:12:53;;;;;;;0.10;0.10;;;6.10;99.90;;;;;;5066105;28;20200;-79
2022/12/06 00:15:18;;;;;;;0.10;0.10;;;6.10;99.90;;;;;;5064994;28;20228;-80
2022/12/06 00:17:44;;;;;;;0.10;0.10;;;6.00;99.90;;;;;;5068018;28;20213;-80
2022/12/06 00:20:10;;;;;;;0.10;0.10;;;6.00;99.90;;;;;;5067617;28;20673;-80
2022/12/06 00:22:36;;;;;;;0.10;0.10;;;6.00;99.90;;;;;;5067984;28;20595;-80
2022/12/06 00:25:01;;;;;;;0.10;0.10;;;5.90;99.90;;;;;;5067966;28;20219;-80
2022/12/06 00:27:27;;;;;;;0.10;0.10;;;6.00;99.90;;;;;;5066557;28;20586;-80
2022/12/06 00:29:52;;;;;;;0.10;0.10;;;5.90;99.90;;;;;;5071774;28;20189;-80
2022/12/06 00:32:18;;;;;;;0.00;0.00;;;5.90;99.90;;;;;;5070594;28;20212;-80
2022/12/06 00:34:43;;;;;;;0.10;0.10;;;5.90;99.90;;;;;;5071727;28;20192;-80
2022/12/06 00:37:09;;;;;;;0.10;0.10;;;6.00;99.90;;;;;;5072934;28;20215;-80
2022/12/06 00:39:35;;;;;;;0.10;0.10;;;5.90;99.90;;;;;;5072777;28;20185;-80
2022/12/06 00:42:00;;;;;;;0.10;0.10;;;6.00;99.90;;;;;;5070215;28;20244;-80
2022/12/06 00:44:26;;;;;;;0.10;0.10;;;5.90;99.90;;;;;;5070392;28;20193;-80
2022/12/06 00:46:51;;;;;;;0.10;0.10;;;5.80;99.90;;;;;;5070925;28;20218;-80
2022/12/06 00:49:17;;;;;;;0.10;0.10;;;5.90;99.90;;;;;;5072236;28;20185;-80
2022/12/06 00:51:42;;;;;;;0.10;0.10;;;5.90;99.90;;;;;;5071716;28;20181;-80
2022/12/06 00:54:12;;;;;;;0.00;0.00;;;5.70;99.90;;;;;;5072132;28;20271;-79
2022/12/06 00:56:37;;;;;;;0.10;0.10;;;5.70;99.90;;;;;;5070429;28;20215;-80
2022/12/06 00:59:04;;;;;;;0.10;0.10;;;5.60;99.90;;;;;;5072672;28;20301;-80
2022/12/06 01:01:32;;;;;;;0.10;0.10;;;5.60;99.90;;;;;;5070317;28;20219;-80
2022/12/06 01:04:00;;;;;;;0.10;0.10;;;5.60;99.90;;;;;;5070921;28;20200;-80
2022/12/06 01:06:29;;;;;;;0.10;0.10;;;5.70;99.90;;;;;;5070667;28;20197;-80
2022/12/06 01:08:57;;;;;;;0.10;0.10;;;5.70;99.90;;;;;;5070782;28;20199;-80
2022/12/06 01:11:23;;;;;;;0.10;0.10;;;5.70;99.90;;;;;;5069202;28;20555;-80
2022/12/06 01:13:50;;;;;;;0.07;0.07;;;5.70;99.90;;;;;;5070799;28;20231;-80
2022/12/06 01:16:20;;;;;;;0.10;0.10;;;5.70;99.90;;;;;;5087407;28;20203;-80
2022/12/06 01:18:46;;;;;;;0.10;0.10;;;5.70;99.90;;;;;;5069991;28;20211;-80
2022/12/06 01:21:17;;;;;;;0.10;0.10;;;5.60;99.90;;;;;;5067986;28;20184;-80
2022/12/06 01:23:43;;;;;;;0.10;0.10;;;5.60;99.90;;;;;;5070827;28;20177;-81
2022/12/06 01:26:30;;;;;;;0.10;0.10;;;5.30;99.90;;;;;;5068541;28;20303;-80
2022/12/06 01:28:57;;;;;;;0.00;0.00;;;5.30;99.90;;;;;;5086053;28;20242;-80
2022/12/06 01:31:22;;;;;;;0.07;0.07;;;5.20;99.90;;;;;;5070208;28;20184;-80
2022/12/06 01:33:48;;;;;;;0.10;0.10;;;5.20;99.90;;;;;;5071182;28;20186;-80
2022/12/06 01:36:19;;;;;;;0.10;0.10;;;5.30;99.90;;;;;;5070536;28;20203;-80
2022/12/06 01:38:55;;;;;;;0.10;0.10;;;5.20;99.90;;;;;;5070258;28;20212;-80
2022/12/06 01:41:23;;;;;;;0.10;0.10;;;5.10;99.90;;;;;;5069374;28;20203;-80
2022/12/06 01:43:49;;;;;;;0.00;0.00;;;5.20;99.90;;;;;;5070063;28;20287;-80
2022/12/06 01:46:25;;;;;;;0.10;0.10;;;5.00;99.90;;;;;;5070199;28;20620;-80
2022/12/06 01:48:57;;;;;;;0.10;0.10;;;5.00;99.90;;;;;;5071440;28;20263;-80
2022/12/06 01:51:23;;;;;;;0.10;0.10;;;4.90;99.90;;;;;;5068571;28;21140;-80
2022/12/06 01:53:51;;;;;;;0.10;0.10;;;5.00;99.90;;;;;;5070518;28;20272;-80
2022/12/06 01:56:18;;;;;;;0.00;0.00;;;5.00;99.90;;;;;;5068414;28;20208;-80
2022/12/06 01:58:45;;;;;;;0.10;0.10;;;4.90;99.90;;;;;;5069468;28;20211;-80
2022/12/06 02:01:11;;;;;;;0.00;0.00;;;5.00;99.90;;;;;;5070392;28;20194;-80
2022/12/06 02:03:37;;;;;;;0.10;0.10;;;5.00;99.90;;;;;;5070318;28;20181;-80
2022/12/06 02:06:07;;;;;;;0.10;0.10;;;5.00;99.90;;;;;;5069618;28;20201;-80
2022/12/06 02:08:34;;;;;;;0.10;0.10;;;4.80;99.90;;;;;;5068960;28;20186;-81
2022/12/06 02:11:02;;;;;;;0.10;0.10;;;4.90;99.90;;;;;;5068642;28;21620;-80
2022/12/06 02:13:30;;;;;;;0.10;0.10;;;5.00;99.90;;;;;;5068720;28;20208;-80
2022/12/06 02:16:20;;;;;;;0.10;0.10;;;5.20;99.90;;;;;;5070880;28;20315;-80
2022/12/06 02:18:52;;;;;;;0.10;0.10;;;5.20;99.90;;;;;;5068046;28;20295;-80
2022/12/06 02:21:34;;;;;;;0.10;0.10;;;4.90;99.90;;;;;;5069088;28;20173;-80
2022/12/06 02:24:37;;;;;;;0.10;0.10;;;5.00;99.90;;;;;;5069468;28;20185;-80
2022/12/06 02:27:11;;;;;;;0.10;0.10;;;5.10;99.90;;;;;;5068358;28;20212;-80
2022/12/06 02:30:07;;;;;;;0.10;0.10;;;5.10;99.90;;;;;;5069464;28;20183;-81
2022/12/06 02:32:56;;;;;;;0.00;0.00;;;5.20;99.90;;;;;;5070267;28;20300;-80
2022/12/06 02:35:29;;;;;;;0.10;0.10;;;5.00;99.90;;;;;;5071356;28;20185;-80
2022/12/06 02:38:03;;;;;;;0.10;0.10;;;5.10;99.90;;;;;;5069070;28;20215;-80
2022/12/06 02:40:37;;;;;;;0.10;0.10;;;5.10;99.90;;;;;;5068408;28;20179;-80
2022/12/06 02:43:26;;;;;;;0.10;0.10;;;5.20;99.90;;;;;;5084498;28;20185;-80
2022/12/06 02:45:56;;;;;;;0.00;0.00;;;5.20;99.90;;;;;;5068766;28;20223;-79
2022/12/06 02:48:24;;;;;;;0.10;0.10;;;5.20;99.90;;;;;;5068588;28;20271;-80
2022/12/06 02:51:00;;;;;;;0.10;0.10;;;5.20;99.90;;;;;;5067103;28;20331;-80
2022/12/06 02:53:29;;;;;;;0.10;0.10;;;5.10;99.90;;;;;;5069236;28;20196;-80
2022/12/06 02:55:56;;;;;;;0.10;0.10;;;5.20;99.90;;;;;;5068081;28;20226;-80
2022/12/06 02:58:21;;;;;;;0.10;0.10;;;5.20;99.90;;;;;;5067498;28;20260;-80
2022/12/06 03:00:56;;;;;;;0.10;0.10;;;5.10;99.90;;;;;;5068318;28;20204;-80
2022/12/06 03:03:34;;;;;;;0.10;0.10;;;5.00;99.90;;;;;;5066846;28;20211;-80
2022/12/06 03:06:00;;;;;;;0.10;0.10;;;5.00;99.90;;;;;;5068668;28;20674;-80
2022/12/06 03:09:03;;;;;;;0.10;0.10;;;5.10;99.90;;;;;;5066880;28;20194;-80
2022/12/06 03:11:42;;;;;;;0.10;0.10;;;5.10;99.90;;;;;;5068344;28;20223;-80
2022/12/06 03:14:18;;;;;;;0.00;0.00;;;5.10;99.90;;;;;;5066916;28;20200;-80
2022/12/06 03:16:47;;;;;;;0.10;0.10;;;5.10;99.90;;;;;;5068717;28;20202;-80
2022/12/06 03:19:21;;;;;;;0.00;0.00;;;5.10;99.90;;;;;;5067717;28;20649;-80
2022/12/06 03:21:56;;;;;;;0.10;0.10;;;5.10;99.90;;;;;;5068084;28;20191;-80
2022/12/06 03:24:24;;;;;;;0.00;0.00;;;5.10;99.90;;;;;;5068621;28;20188;-80
2022/12/06 03:26:51;;;;;;;0.10;0.10;;;5.20;99.90;;;;;;5066562;28;20205;-80
2022/12/06 03:29:20;;;;;;;0.10;0.10;;;5.10;99.90;;;;;;5069279;28;20651;-80
2022/12/06 03:31:48;;;;;;;0.00;0.00;;;5.20;99.90;;;;;;5067637;28;20187;-80
2022/12/06 03:34:31;;;;;;;0.10;0.10;;;5.20;99.90;;;;;;5068424;28;20226;-79
2022/12/06 03:36:58;;;;;;;0.10;0.10;;;5.10;99.90;;;;;;5066060;28;20610;-80
2022/12/06 03:39:39;;;;;;;0.10;0.10;;;5.10;99.90;;;;;;5068082;28;20192;-80
2022/12/06 03:42:05;;;;;;;0.10;0.10;;;5.10;99.90;;;;;;5068898;28;20221;-80
2022/12/06 03:44:32;;;;;;;0.10;0.10;;;5.10;99.90;;;;;;5068910;28;20675;-80
2022/12/06 03:47:29;;;;;;;0.10;0.10;;;5.10;99.90;;;;;;5068916;28;20209;-79
2022/12/06 03:50:06;;;;;;;0.10;0.10;;;5.10;99.90;;;;;;5066599;28;20201;-80
2022/12/06 03:52:32;;;;;;;0.10;0.10;;;5.20;99.90;;;;;;5068200;28;20212;-80
2022/12/06 03:54:58;;;;;;;0.10;0.10;;;5.20;99.90;;;;;;5067581;28;20189;-80
2022/12/06 03:57:24;;;;;;;0.10;0.10;;;5.20;99.90;;;;;;5068267;28;20303;-80
2022/12/06 03:59:49;;;;;;;0.10;0.10;;;5.20;99.90;;;;;;5069282;28;20195;-80
2022/12/06 04:02:15;;;;;;;0.10;0.10;;;5.20;99.90;;;;;;5070367;28;20790;-80
2022/12/06 04:04:40;;;;;;;0.10;0.10;;;5.20;99.90;;;;;;5072420;28;20180;-80
2022/12/06 04:07:06;;;;;;;0.10;0.10;;;5.30;99.90;;;;;;5072179;28;20216;-80
2022/12/06 04:15:01;;;;;;;0.10;0.10;;;5.40;99.90;;;;;;5073247;28;20206;-80
2022/12/06 04:20:10;;;;;;;0.10;0.10;;;5.40;99.90;;;;;;5072650;28;20746;-80
2022/12/06 04:25:20;;;;;;;0.00;0.00;;;5.40;99.90;;;;;;5072976;28;20515;-80
2022/12/06 04:38:42;;;;;;;0.10;0.10;;;5.30;99.90;;;;;;5071916;28;20756;-80
2022/12/06 04:43:40;;;;;;;0.10;0.10;;;5.30;99.90;;;;;;5069556;28;20213;-80
2022/12/06 04:43:57;;;;;;;0.10;0.10;;;5.30;99.90;;;;;;5070798;28;20179;-80
2022/12/06 04:46:22;;;;;;;0.10;0.10;;;5.20;99.90;;;;;;5071525;28;20200;-80
2022/12/06 04:48:48;;;;;;;0.10;0.10;;;5.20;99.90;;;;;;5072292;28;20186;-80
2022/12/06 04:51:13;;;;;;;0.10;0.10;;;5.20;99.90;;;;;;5071287;28;20587;-80
2022/12/06 04:53:39;;;;;;;0.10;0.10;;;5.20;99.90;;;;;;5069175;28;20801;-80
2022/12/06 04:56:05;;;;;;;0.10;0.10;;;5.10;99.90;;;;;;5070649;28;20224;-80
2022/12/06 04:58:30;;;;;;;0.10;0.10;;;5.10;99.90;;;;;;5070514;28;20216;-80
2022/12/06 05:00:56;;;;;;;0.10;0.10;;;5.00;99.90;;;;;;5070142;28;20568;-80
2022/12/06 05:03:21;;;;;;;0.00;0.00;;;5.10;99.90;;;;;;5071090;28;20205;-80
2022/12/06 05:05:47;;;;;;;0.10;0.10;;;5.10;99.90;;;;;;5069228;28;20200;-80
2022/12/06 05:08:13;;;;;;;0.10;0.10;;;5.10;99.90;;;;;;5070466;28;20184;-80
2022/12/06 05:10:38;;;;;;;0.10;0.10;;;5.00;99.90;;;;;;5072118;28;20192;-80
2022/12/06 05:13:04;;;;;;;0.10;0.10;;;5.00;99.90;;;;;;5071325;28;20563;-78
2022/12/06 05:15:31;;;;;;;0.00;0.00;;;5.00;99.90;;;;;;5071552;28;21014;-79
2022/12/06 05:17:56;;;;;;;0.10;0.10;;;5.00;99.90;;;;;;5070337;28;20254;-79
2022/12/06 05:20:22;;;;;;;0.03;0.03;;;5.10;99.90;;;;;;5070887;28;20219;-79
2022/12/06 05:22:48;;;;;;;0.10;0.10;;;5.10;99.90;;;;;;5070864;28;20188;-79
2022/12/06 05:25:15;;;;;;;0.10;0.10;;;5.10;99.90;;;;;;5070616;28;20217;-79
2022/12/06 05:27:41;;;;;;;0.00;0.00;;;5.00;99.90;;;;;;5069764;28;20181;-79
2022/12/06 05:30:07;;;;;;;0.10;0.10;;;5.00;99.90;;;;;;5087177;28;20214;-79
2022/12/06 05:32:33;;;;;;;0.10;0.10;;;4.90;99.90;;;;;;5070060;28;20200;-79
2022/12/06 05:34:59;;;;;;;0.10;0.10;;;4.90;99.90;;;;;;5070838;28;20510;-79
2022/12/06 05:37:24;;;;;;;0.10;0.10;;;4.90;99.90;;;;;;5069815;28;20215;-78
2022/12/06 05:39:50;;;;;;;0.00;0.00;;;4.90;99.90;;;;;;5068726;28;20304;-78
2022/12/06 05:42:16;;;;;;;0.10;0.10;;;5.00;99.90;;;;;;5070195;28;20184;-78
2022/12/06 05:44:42;;;;;;;0.10;0.10;;;5.00;99.90;;;;;;5069513;28;20173;-79
2022/12/06 05:47:08;;;;;;;0.10;0.10;;;5.00;99.90;;;;;;5069699;28;20219;-79
2022/12/06 05:49:33;;;;;;;0.10;0.10;;;5.00;99.90;;;;;;5071832;28;20223;-79
2022/12/06 05:51:59;;;;;;;0.10;0.10;;;5.00;99.90;;;;;;5070725;28;20209;-79
2022/12/06 05:54:24;;;;;;;0.10;0.10;;;5.00;99.90;;;;;;5071206;28;20192;-79
2022/12/06 05:56:50;;;;;;;0.10;0.10;;;5.00;99.90;;;;;;5069315;28;20564;-79
2022/12/06 05:59:16;;;;;;;0.10;0.10;;;5.00;99.90;;;;;;5067306;28;20195;-79
2022/12/06 06:01:42;;;;;;;0.10;0.10;;;5.00;99.90;;;;;;5064866;28;20179;-78
2022/12/06 06:04:07;;;;;;;0.10;0.10;;;5.00;99.90;;;;;;5066624;28;20203;-79
2022/12/06 06:06:33;;;;;;;0.10;0.10;;;5.00;99.90;;;;;;5067998;28;20207;-79
2022/12/06 06:08:59;;;;;;;0.10;0.10;;;5.00;99.90;;;;;;5068555;28;20232;-79
2022/12/06 06:11:24;;;;;;;0.10;0.10;;;5.00;99.90;;;;;;5068726;28;20256;-78
2022/12/06 06:13:50;;;;;;;0.00;0.00;;;5.10;99.90;;;;;;5067385;28;20293;-79
2022/12/06 06:16:15;;;;;;;0.10;0.10;;;5.10;99.90;;;;;;5067463;28;20234;-79
2022/12/06 06:18:41;;;;;;;0.10;0.10;;;5.10;99.90;;;;;;5068395;28;20210;-79
2022/12/06 06:21:06;;;;;;;0.10;0.10;;;5.20;99.90;;;;;;5071546;28;20249;-81
2022/12/06 06:23:32;;;;;;;0.10;0.10;;;5.20;99.90;;;;;;5070990;28;20186;-81
2022/12/06 06:25:58;;;;;;;0.10;0.10;;;5.20;99.90;;;;;;5070706;28;20224;-80
2022/12/06 06:28:24;;;;;;;0.10;0.10;;;5.20;99.90;;;;;;5070065;28;20181;-80
2022/12/06 06:30:49;;;;;;;0.10;0.10;;;5.20;99.90;;;;;;5067777;28;20243;-79
2022/12/06 06:33:16;;;;;;;0.10;0.10;;;5.20;99.90;;;;;;5064902;28;20188;-79
2022/12/06 06:35:42;;;;;;;0.03;0.03;;;5.20;99.90;;;;;;5068604;28;20219;-80
2022/12/06 06:38:08;;;;;;;0.10;0.10;;;5.20;99.90;;;;;;5067332;28;20208;-80
2022/12/06 06:40:34;;;;;;;0.10;0.10;;;5.20;99.90;;;;;;5068626;28;20196;-80
2022/12/06 06:43:16;;;;;;;0.10;0.10;;;5.20;99.90;;;;;;5068170;28;20215;-80
2022/12/06 06:45:53;;;;;;;0.10;0.10;;;5.10;99.90;;;;;;5070316;28;20235;-80
2022/12/06 06:48:20;;;;;;;0.00;0.00;;;5.20;99.90;;;;;;5070290;28;20565;-80
2022/12/06 06:50:46;;;;;;;0.10;0.10;;;5.20;99.90;;;;;;5069947;28;20184;-80
2022/12/06 06:53:12;;;;;;;0.10;0.10;;;5.20;99.90;;;;;;5069122;28;20661;-80
2022/12/06 06:55:38;;;;;;;0.10;0.10;;;5.30;99.90;;;;;;5086276;28;20201;-80
2022/12/06 06:58:04;;;;;;;0.10;0.10;;;5.30;99.90;;;;;;5086990;28;20643;-79
2022/12/06 07:00:31;;;;;;;0.10;0.10;;;5.30;99.90;;;;;;5070325;28;20646;-80
2022/12/06 07:02:57;;;;;;;0.10;0.10;;;5.30;99.90;;;;;;5085368;28;20218;-79
2022/12/06 07:05:23;;;;;;;0.10;0.10;;;5.30;99.90;;;;;;5070017;28;20185;-80
2022/12/06 07:07:48;;;;;;;0.00;0.00;;;5.30;99.90;;;;;;5069403;28;20192;-80
2022/12/06 07:10:14;;;;;;;0.10;0.10;;;5.40;99.90;;;;;;5071320;28;20183;-80
2022/12/06 07:12:39;;;;;;;0.10;0.10;;;5.40;99.90;;;;;;5068510;28;20215;-80
2022/12/06 07:15:06;;;;;;;0.10;0.10;;;5.40;99.90;;;;;;5068670;28;20235;-80
2022/12/06 07:17:32;;;;;;;0.10;0.10;;;5.40;99.90;;;;;;5064009;28;20224;-79
2022/12/06 07:19:57;;;;;;;0.00;0.00;;;5.30;99.90;;;;;;5067694;28;20192;-79
2022/12/06 07:22:23;;;;;;;0.10;0.10;;;5.40;99.90;;;;;;5067077;28;20181;-79
2022/12/06 07:24:49;;;;;;;0.10;0.10;;;5.30;99.90;;;;;;5068046;28;20191;-79
2022/12/06 07:27:14;;;;;;;0.10;0.10;;;5.30;99.90;;;;;;5068197;28;20251;-79
2022/12/06 07:29:40;;;;;;;0.10;0.10;;;5.30;99.90;;;;;;5067601;28;20194;-79
2022/12/06 07:32:05;;;;;;;0.00;0.00;;;5.30;99.90;;;;;;5067635;28;20189;-79
2022/12/06 07:34:32;;;;;;;0.10;0.10;;;5.30;99.90;;;;;;5071708;28;20257;-79
2022/12/06 07:36:57;;;;;;;0.00;0.00;;;5.30;99.90;;;;;;5077383;28;20300;-79
2022/12/06 07:39:23;;;;;;;0.10;0.10;;;5.30;99.90;;;;;;5080181;28;20278;-79
2022/12/06 07:47:17;;;;;;;0.10;0.10;;;5.50;99.90;;;;;;5068761;28;20752;-79
2022/12/06 07:49:43;;;;;;;0.10;0.10;;;5.50;99.90;;;;;;5068850;28;20272;-82
2022/12/06 07:52:08;;;;;;;0.10;0.10;;;5.50;99.90;;;;;;5083650;28;20200;-81
2022/12/06 07:54:35;;;;;;;0.10;0.10;;;5.50;99.90;;;;;;5068893;28;20189;-82
2022/12/06 07:57:01;;;;;;;0.10;0.10;;;5.50;99.90;;;;;;5071312;28;20643;-80
2022/12/06 07:59:26;;;;;;;0.10;0.10;;;5.50;99.90;;;;;;5070140;28;20219;-82
2022/12/06 08:01:52;;;;;;;0.10;0.10;;;5.50;99.90;;;;;;5075622;28;20204;-81
2022/12/06 08:04:18;;;;;;;0.10;0.10;;;5.20;99.90;;;;;;5065996;28;20181;-80
2022/12/06 08:06:44;;;;;;;0.10;0.10;;;5.20;99.90;;;;;;5065394;28;20231;-80
2022/12/06 08:09:10;;;;;;;0.10;0.10;;;5.10;99.90;;;;;;5066662;28;20228;-79
2022/12/06 08:11:36;;;;;;;0.10;0.10;;;5.20;99.90;;;;;;5065288;28;20184;-79
2022/12/06 08:14:03;;;;;;;0.10;0.10;;;5.30;99.90;;;;;;5063233;28;20197;-80
2022/12/06 08:16:29;;;;;;;0.10;0.10;;;5.40;99.90;;;;;;5066288;28;20211;-79
2022/12/06 08:18:55;;;;;;;0.10;0.10;;;5.20;99.90;;;;;;5067071;28;20265;-79
2022/12/06 08:21:21;;;;;;;0.10;0.10;;;5.10;99.90;;;;;;5067670;28;20188;-80
2022/12/06 08:23:46;;;;;;;0.10;0.10;;;5.10;99.90;;;;;;5067034;28;20180;-80
2022/12/06 08:26:14;;;;;;;0.10;0.10;;;5.10;99.90;;;;;;5066881;28;20279;-80
2022/12/06 08:28:42;;;;;;;0.10;0.10;;;5.00;99.90;;;;;;5082342;28;20181;-79
2022/12/06 08:31:13;;;;;;;0.00;0.00;;;5.00;99.90;;;;;;5065640;28;20223;-80
2022/12/06 08:33:40;;;;;;;0.10;0.10;;;5.10;99.90;;;;;;5066380;28;20197;-84
2022/12/06 08:36:15;;;;;;;0.10;0.10;;;4.90;99.90;;;;;;5068498;28;20215;-80
2022/12/06 08:38:41;;;;;;;0.10;0.10;;;5.10;99.90;;;;;;5067460;28;20236;-80
2022/12/06 08:41:54;;;;;;;0.10;0.10;;;5.10;99.90;;;;;;5067412;28;20787;-79
2022/12/06 08:43:55;;;;;;;0.10;0.10;;;5.00;99.90;;;;;;5068315;28;20249;-79
2022/12/06 08:46:21;;;;;;;0.10;0.10;;;4.90;99.90;;;;;;5065736;28;20214;-79
2022/12/06 08:48:47;;;;;;;0.10;0.10;;;4.80;99.90;;;;;;5065007;28;20772;-79
2022/12/06 08:51:12;;;;;;;0.10;0.10;;;4.90;99.90;;;;;;5068872;28;20223;-79
2022/12/06 08:53:38;;;;;;;0.10;0.10;;;5.00;99.90;;;;;;5070988;28;20296;-79
2022/12/06 08:56:04;;;;;;;0.10;0.10;;;5.00;99.90;;;;;;5070571;28;20342;-80
2022/12/06 08:58:29;;;;;;;0.10;0.10;;;5.10;99.90;;;;;;5070195;28;20205;-80
2022/12/06 09:00:55;;;;;;;0.10;0.10;;;5.20;99.90;;;;;;5068494;28;20180;-80
2022/12/06 09:03:21;;;;;;;0.10;0.10;;;5.20;99.90;;;;;;5070731;28;20177;-79
2022/12/06 09:05:46;;;;;;;0.00;0.00;;;5.20;99.90;;;;;;5070422;28;20216;-79
2022/12/06 09:08:12;;;;;;;0.10;0.10;;;5.00;99.90;;;;;;5071534;28;20204;-79
2022/12/06 09:10:37;;;;;;;0.10;0.10;;;5.20;99.90;;;;;;5069994;28;20199;-79
2022/12/06 09:13:03;;;;;;;0.00;0.00;;;5.00;99.90;;;;;;5070207;28;20252;-80
2022/12/06 09:15:28;;;;;;;0.10;0.10;;;5.00;99.90;;;;;;5069081;28;20336;-79
2022/12/06 09:17:54;;;;;;;0.10;0.10;;;5.10;99.90;;;;;;5069227;28;20223;-80
2022/12/06 09:20:19;;;;;;;0.10;0.10;;;4.90;99.90;;;;;;5069426;28;20198;-80
2022/12/06 09:22:45;;;;;;;0.00;0.00;;;5.10;99.90;;;;;;5072616;28;20230;-80
2022/12/06 09:25:11;;;;;;;0.10;0.10;;;5.30;99.90;;;;;;5067243;28;21266;-80
2022/12/06 09:27:38;;;;;;;0.10;0.10;;;5.50;99.90;;;;;;5071605;28;20199;-80
2022/12/06 09:30:04;;;;;;;0.10;0.10;;;5.50;99.90;;;;;;5069269;28;20230;-81
2022/12/06 09:32:29;;;;;;;0.10;0.10;;;5.40;99.90;;;;;;5071715;28;20204;-81
2022/12/06 09:34:55;;;;;;;0.10;0.10;;;5.40;99.90;;;;;;5071955;28;20653;-81
2022/12/06 09:37:21;;;;;;;0.10;0.10;;;5.40;99.90;;;;;;5068935;28;20274;-80
2022/12/06 09:39:54;;;;;;;0.10;0.10;;;5.50;99.90;;;;;;5070371;28;20282;-81
2022/12/06 09:42:31;;;;;;;0.10;0.10;;;5.60;99.90;;;;;;5072473;28;20184;-80
2022/12/06 09:45:14;;;;;;;0.00;0.00;;;5.50;99.90;;;;;;5074131;28;20233;-81
2022/12/06 09:48:07;;;;;;;0.10;0.10;;;5.30;99.90;;;;;;5071691;28;20184;-81
2022/12/06 09:50:49;;;;;;;0.10;0.10;;;5.60;99.90;;;;;;5071377;28;20229;-80
2022/12/06 09:53:37;;;;;;;0.10;0.10;;;5.80;99.90;;;;;;5066767;28;20182;-81
2022/12/06 09:56:09;;;;;;;0.10;0.10;;;6.00;99.90;;;;;;5072779;28;20295;-81
2022/12/06 09:58:53;;;;;;;0.10;0.10;;;6.00;99.90;;;;;;5073124;28;20207;-81
2022/12/06 10:01:25;;;;;;;0.10;0.10;;;5.90;99.90;;;;;;5073296;28;20200;-80
2022/12/06 10:03:57;;;;;;;0.10;0.10;;;5.70;99.90;;;;;;5073930;28;20188;-81
2022/12/06 10:06:29;;;;;;;0.00;0.00;;;5.50;99.90;;;;;;5072633;28;20273;-81
2022/12/06 10:09:21;;;;;;;0.10;0.10;;;5.50;99.90;;;;;;5071913;28;20225;-80
2022/12/06 10:12:07;;;;;;;0.10;0.10;;;5.80;99.90;;;;;;5072750;28;20185;-81
2022/12/06 10:14:45;;;;;;;0.10;0.10;;;5.80;99.90;;;;;;5072022;28;20232;-79
2022/12/06 10:17:23;;;;;;;0.10;0.10;;;6.00;99.90;;;;;;5069209;28;20212;-80
2022/12/06 10:20:16;;;;;;;0.10;0.10;;;6.20;99.90;;;;;;5072176;28;20188;-80
2022/12/06 10:23:03;;;;;;;0.10;0.10;;;6.20;99.90;;;;;;5070586;28;20188;-80
2022/12/06 10:25:53;;;;;;;0.10;0.10;;;6.30;99.90;;;;;;5070995;28;20188;-80
2022/12/06 10:28:24;;;;;;;0.10;0.10;;;6.40;99.90;;;;;;5069468;28;20219;-80
2022/12/06 10:30:52;;;;;;;0.10;0.10;;;6.30;99.90;;;;;;5070555;28;20177;-80
2022/12/06 10:33:27;;;;;;;0.00;0.00;;;6.20;99.90;;;;;;5069024;28;20216;-80
2022/12/06 10:35:58;;;;;;;0.10;0.10;;;6.20;99.90;;;;;;5068397;28;20216;-80
2022/12/06 10:38:36;;;;;;;0.10;0.10;;;6.20;99.90;;;;;;5068424;28;20207;-80
2022/12/06 10:41:35;;;;;;;0.10;0.10;;;6.30;99.90;;;;;;5071325;28;20324;-81
2022/12/06 10:44:23;;;;;;;0.10;0.10;;;6.40;99.90;;;;;;5064293;28;20274;-79
2022/12/06 10:47:05;;;;;;;0.10;0.10;;;6.40;99.90;;;;;;5037720;28;20209;-80
2022/12/06 10:49:54;;;;;;;0.10;0.10;;;6.20;99.90;;;;;;5087715;28;20185;-80
2022/12/06 10:52:43;;;;;;;0.10;0.10;;;6.50;99.90;;;;;;5066727;28;21117;-80
2022/12/06 10:55:08;;;;;;;0.10;0.10;;;6.60;99.90;;;;;;5068540;28;20203;-80
2022/12/06 10:57:58;;;;;;;0.10;0.10;;;6.60;99.90;;;;;;5066575;28;20197;-79
2022/12/06 11:00:26;;;;;;;0.10;0.10;;;6.80;99.90;;;;;;5063678;28;20296;-79
2022/12/06 11:03:13;;;;;;;0.10;0.10;;;6.70;99.90;;;;;;5068607;28;20476;-80
2022/12/06 11:05:45;;;;;;;0.00;0.00;;;6.70;99.90;;;;;;5068250;28;20230;-80
2022/12/06 11:08:27;;;;;;;0.03;0.03;;;6.70;99.90;;;;;;5068809;28;20188;-80
2022/12/06 11:10:54;;;;;;;0.10;0.10;;;6.60;99.90;;;;;;5067879;28;20193;-80
2022/12/06 11:13:29;;;;;;;0.00;0.00;;;6.60;99.90;;;;;;5066260;28;20209;-80
2022/12/06 11:16:16;;;;;;;0.07;0.07;;;6.60;99.90;;;;;;5069565;28;20707;-80
2022/12/06 11:18:43;;;;;;;0.10;0.10;;;6.60;99.90;;;;;;5069279;28;20201;-80
2022/12/06 11:21:20;;;;;;;0.10;0.10;;;6.60;99.90;;;;;;5068292;28;20177;-81
2022/12/06 11:24:11;;;;;;;0.10;0.10;;;6.70;99.90;;;;;;5069721;28;20192;-80
2022/12/06 11:26:45;;;;;;;0.10;0.10;;;6.80;99.90;;;;;;5068914;28;20196;-80
2022/12/06 11:29:13;;;;;;;0.10;0.10;;;6.80;99.90;;;;;;5070917;28;20235;-81
2022/12/06 11:31:49;;;;;;;0.00;0.00;;;6.80;99.90;;;;;;5083074;28;20198;-81
2022/12/06 11:34:42;;;;;;;0.10;0.10;;;6.60;99.90;;;;;;5067761;28;20245;-81
2022/12/06 11:37:17;;;;;;;0.00;0.00;;;6.80;99.90;;;;;;5068777;28;20217;-80
2022/12/06 11:39:44;;;;;;;0.03;0.03;;;6.80;99.90;;;;;;5067072;28;20279;-79
2022/12/06 11:42:13;;;;;;;0.03;0.03;;;6.70;99.90;;;;;;5064440;28;20231;-79
2022/12/06 11:44:47;;;;;;;0.10;0.10;;;6.80;99.90;;;;;;5064833;28;20196;-79
2022/12/06 11:47:20;;;;;;;0.00;0.00;;;6.70;99.90;;;;;;5068757;28;20263;-79
2022/12/06 11:49:47;;;;;;;0.10;0.10;;;6.80;99.90;;;;;;5068722;28;20188;-80
2022/12/06 11:52:27;;;;;;;0.10;0.10;;;6.80;99.90;;;;;;5067133;28;20185;-79
2022/12/06 11:55:01;;;;;;;0.10;0.10;;;6.60;99.90;;;;;;5073916;28;20180;-79
2022/12/06 11:57:50;;;;;;;0.00;0.00;;;6.70;99.90;;;;;;5067035;28;20210;-80
2022/12/06 12:00:22;;;;;;;0.10;0.10;;;6.90;99.90;;;;;;5067858;28;20192;-79
2022/12/06 12:02:50;;;;;;;0.03;0.03;;;6.80;99.90;;;;;;5069783;28;20181;-80
2022/12/06 12:05:15;;;;;;;0.10;0.10;;;7.00;99.90;;;;;;5068370;28;20251;-80
2022/12/06 12:07:44;;;;;;;0.10;0.10;;;7.10;99.90;;;;;;5067765;28;20181;-78
2022/12/06 12:10:38;;;;;;;0.10;0.10;;;7.20;99.90;;;;;;5068178;28;20188;-79
2022/12/06 12:16:24;;;;;;;0.10;0.10;;;7.40;99.90;;;;;;5068676;28;20957;-79
2022/12/06 12:18:53;;;;;;;0.10;0.10;;;7.30;99.90;;;;;;5064980;28;20274;-79
2022/12/06 12:21:30;;;;;;;0.10;0.10;;;7.30;99.90;;;;;;5067899;28;20184;-79
2022/12/06 12:23:57;;;;;;;0.10;0.10;;;7.20;99.90;;;;;;5065906;28;20250;-79
2022/12/06 12:26:32;;;;;;;0.10;0.10;;;7.00;99.90;;;;;;5087645;28;20375;-81
2022/12/06 12:29:07;;;;;;;0.10;0.10;;;7.00;99.90;;;;;;5071043;28;20287;-80
2022/12/06 12:31:55;;;;;;;0.00;0.00;;;6.90;99.90;;;;;;5070075;28;20180;-79
2022/12/06 12:34:26;;;;;;;0.00;0.00;;;6.70;99.90;;;;;;5066475;28;20181;-80
2022/12/06 12:36:55;;;;;;;0.10;0.10;;;6.60;99.90;;;;;;5071064;28;20208;-80
2022/12/06 12:39:38;;;;;;;0.10;0.10;;;6.50;99.90;;;;;;5087789;28;20217;-80
2022/12/06 12:42:27;;;;;;;0.00;0.00;;;6.50;99.90;;;;;;5069105;28;20199;-80
2022/12/06 12:44:57;;;;;;;0.10;0.10;;;6.50;99.90;;;;;;5072084;28;20193;-80
2022/12/06 12:47:23;;;;;;;0.10;0.10;;;6.40;99.90;;;;;;5071514;28;20595;-79
2022/12/06 12:50:19;;;;;;;0.10;0.10;;;6.40;99.90;;;;;;5070554;28;20238;-80
2022/12/06 12:52:45;;;;;;;0.10;0.10;;;6.30;99.90;;;;;;5056877;28;20662;-79
2022/12/06 12:55:18;;;;;;;0.10;0.10;;;6.10;99.90;;;;;;5088320;28;20282;-79
2022/12/06 12:57:46;;;;;;;0.10;0.10;;;6.00;99.90;;;;;;5070075;28;20205;-80
2022/12/06 13:00:21;;;;;;;0.10;0.10;;;5.80;99.90;;;;;;5069712;28;20181;-79
2022/12/06 13:02:56;;;;;;;0.10;0.10;;;5.90;99.90;;;;;;5069376;28;20177;-79
2022/12/06 13:05:28;;;;;;;0.10;0.10;;;6.00;99.90;;;;;;5069710;28;20247;-78
2022/12/06 13:08:03;;;;;;;0.10;0.10;;;6.10;99.90;;;;;;5069616;28;20238;-79
2022/12/06 13:10:37;;;;;;;0.10;0.10;;;6.20;99.90;;;;;;5069851;28;20271;-79
2022/12/06 13:13:11;;;;;;;0.10;0.10;;;6.30;99.90;;;;;;5069504;28;20200;-79
2022/12/06 13:15:46;;;;;;;0.10;0.10;;;6.30;99.90;;;;;;5070056;28;20249;-80
2022/12/06 13:18:40;;;;;;;0.00;0.00;;;6.10;99.90;;;;;;5069319;28;20257;-79
2022/12/06 13:21:19;;;;;;;0.10;0.10;;;6.00;99.90;;;;;;5067864;28;20173;-79
2022/12/06 13:23:49;;;;;;;0.10;0.10;;;6.20;99.90;;;;;;5086676;28;20252;-78
2022/12/06 13:26:25;;;;;;;0.10;0.10;;;6.20;99.90;;;;;;5068242;28;20202;-79
2022/12/06 13:29:00;;;;;;;0.10;0.10;;;6.10;99.90;;;;;;5068673;28;20173;-79
2022/12/06 13:31:32;;;;;;;0.10;0.10;;;6.10;99.90;;;;;;5091874;28;20181;-80
2022/12/06 13:34:03;;;;;;;0.10;0.10;;;5.80;99.90;;;;;;5076136;28;20185;-81
2022/12/06 13:36:33;;;;;;;0.00;0.00;;;6.00;99.90;;;;;;5073973;28;20204;-80
2022/12/06 13:39:31;;;;;;;0.10;0.10;;;6.00;99.90;;;;;;5092902;28;20205;-79
2022/12/06 13:42:16;;;;;;;0.00;0.00;;;5.90;99.90;;;;;;5070068;28;20300;-79
2022/12/06 13:44:52;;;;;;;0.07;0.07;;;5.90;99.90;;;;;;5066008;28;20165;-79
2022/12/06 13:47:27;;;;;;;0.10;0.10;;;5.80;99.90;;;;;;5065061;28;20204;-79